Chino Hills, California
Current Conditions -  °F | °C
As of 6:53 AM on Monday 22 Dec 2014 (Local Time) from KCNO Reporting Station
Few Clouds Few Clouds  
Wind Chill: 42°   Ceiling: Unl
Heat Index: 42°   Visibility: 10mi
Dew Point: 42°   Wind: 3mph
Humidity: 100%   Direction: NA
Pressure: 30.06"   Gusts: NA
Location:  34°N, 117.75°W
Report Text: KCNO 221453Z VRB03KT 10SM FEW200 06/06 A3006 RMK AO2 SLP177 T00560056 53001 $
Loading
Personal Weather Stations






























Interactive Weather Map New forecast layout! Learn more

10-Day Weather Forecast

Advertisements
Track Severe Weather on mobile